Главная страница
METAR-TAF:

METAR-TAF

Аэропорты :

Aklavik, Северо-Западные Территории, Канада

широта: 68-13N, долгота: 135-00W, высота над уровнем моря: 7 м

Текущие метеонаблюдения

Эта сводка был подготовлена 13 часа и 55 минут назад, в 23:00 UTC
Штиль
Температура -7°C
Влажность 93%
Давление 1006 hPa
Видимость: 9.7 км
Рассеянная облачность на высоте 300 фута
Сплошная облачность на высоте 24000 фута
туман в окрестностях

METAR: CYKD 192300Z 00000KT 6SM VCFG BKN003 OVC240 M07/M08 A2971 RMK ST7CI1 CIG RAG/0.2/SNW CVR/MUCH LOOSE/LAST STFD OBS/NXT 201300Z PRESFR SLP061

Время: 06:55 (12:55 UTC)


TAF: отсутствует

Метеонаблюдения и прогнозы для более 4000 аэропортов (сводки METAR и TAF).

Имеющиеся станции представлены на карте желтыми и красными точками.

Чтобы увидеть название станции, наведите на нее мышь.

Затем щелкните, чтобы увидеть метеонаблюдения и метеопрогнозы.

Управление картой: чтобы увеличить масштаб, щелкните зеленые кнопки с черным крестиком; чтобы уменьшить масштаб, щелкните зеленую кнопку с тире; для просмотра соседних карт щелкайте зеленые стрелки.


METAR-TAF: